Sti Opera — V7CJ3 — position and weather

sailwx.info

Track history (hours):
 
Tides and Currents Weather Stations Pressure Air Temp Water Temp Dewpoint Dewpoint Depression Visibility Wind Speed Wind Dir Waves Ship Positions

Sti Opera

Last reported at 2017-Sep-19 11:09 UTC. Time now 2017-Sep-22 18:53 UTC.
Position N 38°33' W 074°41'.

Length 183 m; draft 8 m.

Type: Tanker. MMSI: 538005269.

Date/timePositionNaut miles runAvg speedWind from/ knotsBaromVisibWave heightAir tempDewpointWater temp
2017-Sep-19 11:09N 38°33' W 074°41'1 3.6
2017-Sep-19 10:45N 38°32' W 074°40'1 3.5
2017-Sep-19 10:30N 38°32' W 074°39'1 1.7
2017-Sep-19 09:54N 38°32' W 074°37'1 2.0
2017-Sep-19 09:22N 38°33' W 074°37'1 2.1
2017-Sep-19 08:53N 38°34' W 074°37'1 2.1
2017-Sep-19 08:30N 38°35' W 074°37'1 2.2
2017-Sep-19 08:00N 38°36' W 074°37'1 2.3
2017-Sep-19 07:30N 38°37' W 074°38'1 2.4
2017-Sep-19 06:55N 38°38' W 074°39'1 2.3
2017-Sep-19 06:26N 38°39' W 074°39'1 2.1
2017-Sep-19 05:58N 38°40' W 074°40'1 1.5
2017-Sep-19 05:30N 38°39' W 074°40'1 1.6
2017-Sep-19 05:00N 38°38' W 074°40'1 1.7
2017-Sep-19 04:30N 38°38' W 074°40'1 1.1
2017-Sep-19 04:00N 38°37' W 074°39'1 1.2
2017-Sep-19 03:30N 38°37' W 074°39'1 1.2
2017-Sep-19 02:59N 38°36' W 074°38'0 1.0
2017-Sep-19 02:30N 38°36' W 074°39'3 1.8
2017-Sep-19 00:37N 38°39' W 074°41'1 2.0
2017-Sep-19 00:20N 38°38' W 074°41'1 2.0
2017-Sep-19 00:00N 38°38' W 074°40'1 2.2
2017-Sep-18 23:30N 38°38' W 074°39'1 2.3
2017-Sep-18 22:59N 38°37' W 074°37'1 2.5
2017-Sep-18 22:23N 38°36' W 074°36'1 2.8
2017-Sep-18 21:58N 38°36' W 074°35'2 3.2
2017-Sep-18 21:29N 38°35' W 074°33'1 1.2
2017-Sep-18 21:00N 38°35' W 074°34'0 0.3
2017-Sep-18 20:29N 38°35' W 074°34'0 0.9
2017-Sep-18 20:00N 38°35' W 074°34'1 1.2
2017-Sep-18 19:29N 38°36' W 074°35'1 1.0
2017-Sep-18 18:57N 38°36' W 074°35'2 1.5
2017-Sep-18 17:54N 38°38' W 074°36'0 0.6
2017-Sep-18 17:27N 38°37' W 074°36'0 0.0
2017-Sep-18 16:42N 38°37' W 074°36'0 0.0
2017-Sep-18 16:24N 38°37' W 074°36'0 0.0
2017-Sep-18 13:48N 38°37' W 074°36'0 0.0
2017-Sep-18 13:27N 38°37' W 074°36'8 1.2
2017-Sep-18 07:00N 38°37' W 074°47'611.9
2017-Sep-18 06:30N 38°38' W 074°54'713.7
2017-Sep-18 06:00N 38°44' W 074°59'612.7
2017-Sep-18 05:30N 38°49' W 075°04'610.9
2017-Sep-18 04:58N 38°54' W 075°06'715.4
2017-Sep-18 04:30N 39°01' W 075°09'815.4
2017-Sep-18 04:00N 39°08' W 075°14'714.9
2017-Sep-18 03:30N 39°14' W 075°18'714.3
2017-Sep-18 03:01N 39°19' W 075°25'713.4
2017-Sep-18 02:31N 39°24' W 075°30'611.6
2017-Sep-18 02:01N 39°30' W 075°34'5 9.1
2017-Sep-18 01:31N 39°34' W 075°34'2 3.1
2017-Sep-18 01:01N 39°35' W 075°35'0 0.4
2017-Sep-18 00:30N 39°35' W 075°36'0 0.0
2017-Sep-18 00:00N 39°35' W 075°36'0 0.0
2017-Sep-17 23:30N 39°35' W 075°36'0 0.0
2017-Sep-17 23:00N 39°35' W 075°36'0 0.0
2017-Sep-17 22:30N 39°35' W 075°36'0 0.0
2017-Sep-17 22:00N 39°35' W 075°36'0 0.0
2017-Sep-17 21:30N 39°35' W 075°36'0 0.0
2017-Sep-17 21:00N 39°35' W 075°36'0 0.0
2017-Sep-17 20:30N 39°35' W 075°36'0 0.0
2017-Sep-17 19:59N 39°35' W 075°36'0 0.0
2017-Sep-17 19:26N 39°35' W 075°36'0 0.0
2017-Sep-17 19:00N 39°35' W 075°36'0 0.0
2017-Sep-17 18:29N 39°35' W 075°36'0 0.0
2017-Sep-17 18:00N 39°35' W 075°36'0 0.0
2017-Sep-17 17:29N 39°35' W 075°36'0 0.0
2017-Sep-17 17:00N 39°35' W 075°36'0 0.0
2017-Sep-17 16:30N 39°35' W 075°36'0 0.0
2017-Sep-17 16:00N 39°35' W 075°36'0 0.0
2017-Sep-17 15:30N 39°35' W 075°36'0 0.0
2017-Sep-17 15:00N 39°35' W 075°36'0 0.0
2017-Sep-17 14:29N 39°35' W 075°36'0 0.0
2017-Sep-17 13:59N 39°35' W 075°36'0 0.0
2017-Sep-17 13:29N 39°35' W 075°36'0 0.0
2017-Sep-17 13:00N 39°35' W 075°36'0 0.0
2017-Sep-17 12:30N 39°35' W 075°36'0 0.0
2017-Sep-17 12:00N 39°35' W 075°36'0 0.0
2017-Sep-17 11:29N 39°35' W 075°36'0 0.0
2017-Sep-17 10:59N 39°35' W 075°36'0 0.0
2017-Sep-17 10:29N 39°35' W 075°36'0 0.0
2017-Sep-17 09:59N 39°35' W 075°36'0 0.0
2017-Sep-17 09:30N 39°35' W 075°36'0 0.0
2017-Sep-17 08:59N 39°35' W 075°36'0 0.0
2017-Sep-17 08:29N 39°35' W 075°36'0 0.0
2017-Sep-17 07:59N 39°35' W 075°36'0 0.0
2017-Sep-17 07:29N 39°35' W 075°36'0 0.0
2017-Sep-17 06:56N 39°35' W 075°36'0 0.0
2017-Sep-17 06:29N 39°35' W 075°36'0 0.0
2017-Sep-17 05:59N 39°35' W 075°36'0 0.0
2017-Sep-17 05:29N 39°35' W 075°36'0 0.0
2017-Sep-17 04:59N 39°35' W 075°36'0 0.0
2017-Sep-17 04:29N 39°35' W 075°36'0 0.0
2017-Sep-17 03:59N 39°35' W 075°36'0 0.0
2017-Sep-17 03:29N 39°35' W 075°36'0 0.0
2017-Sep-17 02:59N 39°35' W 075°36'0 0.0
2017-Sep-17 02:29N 39°35' W 075°36'0 0.0
2017-Sep-17 01:59N 39°35' W 075°36'0 0.0
2017-Sep-17 01:29N 39°35' W 075°36'0 0.0
2017-Sep-17 00:59N 39°35' W 075°36'0 0.0
2017-Sep-17 00:29N 39°35' W 075°36'0 0.0
2017-Sep-16 23:59N 39°35' W 075°36'0 0.0
2017-Sep-16 23:29N 39°35' W 075°36'0 0.0
2017-Sep-16 22:59N 39°35' W 075°36'0 0.0
2017-Sep-16 22:29N 39°35' W 075°36'0 0.0
2017-Sep-16 21:59N 39°35' W 075°36'0 0.0
2017-Sep-16 21:29N 39°35' W 075°36'0 0.0
2017-Sep-16 20:59N 39°35' W 075°36'0 0.0
2017-Sep-16 20:29N 39°35' W 075°36'0 0.0
2017-Sep-16 19:59N 39°35' W 075°36'0 0.0
2017-Sep-16 19:29N 39°35' W 075°36'0 0.0
2017-Sep-16 18:59N 39°35' W 075°36'0 0.0
2017-Sep-16 18:29N 39°35' W 075°36'0 0.0
2017-Sep-16 17:59N 39°35' W 075°36'0 0.0
2017-Sep-16 17:29N 39°35' W 075°36'0 0.0
2017-Sep-16 16:59N 39°35' W 075°36'0 0.0
2017-Sep-16 16:29N 39°35' W 075°36'0 0.0
2017-Sep-16 15:59N 39°35' W 075°36'0 0.0
2017-Sep-16 15:29N 39°35' W 075°36'0 0.0
2017-Sep-16 14:59N 39°35' W 075°36'0 0.0
2017-Sep-16 14:29N 39°35' W 075°36'0 0.0
2017-Sep-16 13:59N 39°35' W 075°36'0 0.0
2017-Sep-16 13:29N 39°35' W 075°36'0 0.0
2017-Sep-16 12:59N 39°35' W 075°36'0 0.0
2017-Sep-16 12:29N 39°35' W 075°36'0 0.0
2017-Sep-16 11:59N 39°35' W 075°36'0 0.0
2017-Sep-16 11:29N 39°35' W 075°36'0 0.0
2017-Sep-16 10:59N 39°35' W 075°36'0 0.0
2017-Sep-16 10:29N 39°35' W 075°36'0 0.0
2017-Sep-16 09:59N 39°35' W 075°36'0 0.0
2017-Sep-16 09:29N 39°35' W 075°36'0 0.0
2017-Sep-16 08:56N 39°35' W 075°36'0 0.0
2017-Sep-16 08:29N 39°35' W 075°36'0 0.0
2017-Sep-16 07:59N 39°35' W 075°36'0 0.0
2017-Sep-16 07:29N 39°35' W 075°36'0 0.0
2017-Sep-16 06:59N 39°35' W 075°36'0 0.0
2017-Sep-16 06:29N 39°35' W 075°36'0 0.0
2017-Sep-16 05:59N 39°35' W 075°36'0 0.0
2017-Sep-16 05:29N 39°35' W 075°36'0 0.0
2017-Sep-16 04:59N 39°35' W 075°36'0 0.0
2017-Sep-16 04:29N 39°35' W 075°36'0 0.0
2017-Sep-16 03:59N 39°35' W 075°36'0 0.0
2017-Sep-16 03:29N 39°35' W 075°36'0 0.0
2017-Sep-16 02:59N 39°35' W 075°36'0 0.0
2017-Sep-16 02:29N 39°35' W 075°36'0 0.4
2017-Sep-16 02:01N 39°35' W 075°35'2 3.7
2017-Sep-16 01:31N 39°34' W 075°33'1 2.1
2017-Sep-16 01:01N 39°35' W 075°34'3 6.1
2017-Sep-16 00:30N 39°38' W 075°34'3 6.8
2017-Sep-16 00:00N 39°41' W 075°31'3 5.8
2017-Sep-15 23:31N 39°43' W 075°30'3 6.1
2017-Sep-15 23:00N 39°46' W 075°28'4 7.1
2017-Sep-15 22:31N 39°48' W 075°25'4 8.5
2017-Sep-15 22:00N 39°51' W 075°20'4 8.1
2017-Sep-15 21:30N 39°51' W 075°15'1 2.0
2017-Sep-15 20:58N 39°51' W 075°14'0 0.2
2017-Sep-15 20:28N 39°51' W 075°14'0 0.1
2017-Sep-15 19:58N 39°52' W 075°14'0 0.0
2017-Sep-15 19:28N 39°52' W 075°14'0 0.1
2017-Sep-15 18:58N 39°52' W 075°14'0 0.0
2017-Sep-15 18:28N 39°52' W 075°14'0 0.0
2017-Sep-15 17:58N 39°51' W 075°14'0 0.0
2017-Sep-15 17:28N 39°51' W 075°14'0 0.0
2017-Sep-15 16:58N 39°52' W 075°14'0 0.0
2017-Sep-15 16:28N 39°52' W 075°14'0 0.0
2017-Sep-15 15:58N 39°52' W 075°14'0 0.1
2017-Sep-15 15:28N 39°52' W 075°14'0 0.3
2017-Sep-15 14:58N 39°52' W 075°14'0 0.1
2017-Sep-15 14:28N 39°52' W 075°13'0 0.0
2017-Sep-15 13:58N 39°52' W 075°13'0 0.0
2017-Sep-15 13:28N 39°52' W 075°13'0 0.0
2017-Sep-15 12:58N 39°52' W 075°13'0 0.0
2017-Sep-15 12:28N 39°52' W 075°13'0 0.0
2017-Sep-15 11:58N 39°52' W 075°13'0 0.0
2017-Sep-15 11:28N 39°52' W 075°13'0 0.0
2017-Sep-15 10:58N 39°52' W 075°13'0 0.0
2017-Sep-15 10:28N 39°52' W 075°13'0 0.0
2017-Sep-15 09:58N 39°52' W 075°13'0 0.3
2017-Sep-15 09:25N 39°51' W 075°14'0 0.1
2017-Sep-15 08:58N 39°52' W 075°14'0 0.1
2017-Sep-15 08:28N 39°51' W 075°14'0 0.0
2017-Sep-15 07:55N 39°52' W 075°14'0 0.0
2017-Sep-15 07:28N 39°52' W 075°14'0 0.0
2017-Sep-15 06:58N 39°52' W 075°14'0 0.0
2017-Sep-15 06:28N 39°52' W 075°14'0 0.0
2017-Sep-15 05:58N 39°52' W 075°14'0 0.0
2017-Sep-15 05:28N 39°52' W 075°14'0 0.0
2017-Sep-15 04:58N 39°52' W 075°14'0 0.0
2017-Sep-15 04:25N 39°52' W 075°14'0 0.0
2017-Sep-15 03:58N 39°52' W 075°14'0 0.0
2017-Sep-15 03:28N 39°52' W 075°14'0 0.0
2017-Sep-15 02:55N 39°52' W 075°14'0 0.3
2017-Sep-15 02:28N 39°52' W 075°14'0 0.1
2017-Sep-15 01:58N 39°52' W 075°13'0 0.0
2017-Sep-15 01:28N 39°52' W 075°13'0 0.0
2017-Sep-15 00:58N 39°52' W 075°13'0 0.0
2017-Sep-15 00:28N 39°52' W 075°13'0 0.0
2017-Sep-14 23:58N 39°52' W 075°13'0 0.0
2017-Sep-14 23:28N 39°52' W 075°13'0 0.0
2017-Sep-14 22:58N 39°52' W 075°13'0 0.0
2017-Sep-14 22:28N 39°52' W 075°13'1 2.2
2017-Sep-14 22:00N 39°52' W 075°13'3 6.3
2017-Sep-14 21:30N 39°53' W 075°09'2 4.2
2017-Sep-14 21:00N 39°55' W 075°08'0 0.1
2017-Sep-14 20:30N 39°55' W 075°08'0 0.3
2017-Sep-14 20:00N 39°55' W 075°08'0 0.0
2017-Sep-14 19:30N 39°55' W 075°08'0 0.0
2017-Sep-14 19:00N 39°55' W 075°08'0 0.0
2017-Sep-14 18:30N 39°55' W 075°08'0 0.0
2017-Sep-14 18:00N 39°55' W 075°08'0 0.0
2017-Sep-14 17:30N 39°55' W 075°08'0 0.0
2017-Sep-14 17:00N 39°55' W 075°08'0 0.0
2017-Sep-14 16:30N 39°55' W 075°08'0 0.0
2017-Sep-14 16:00N 39°55' W 075°08'0 0.0
2017-Sep-14 15:30N 39°55' W 075°08'0 0.0
2017-Sep-14 15:00N 39°55' W 075°08'0 0.2
2017-Sep-14 14:30N 39°55' W 075°08'0 0.2
2017-Sep-14 14:00N 39°55' W 075°08'0 0.1
2017-Sep-14 13:30N 39°55' W 075°08'0 0.0
2017-Sep-14 13:00N 39°55' W 075°08'0 0.0
2017-Sep-14 12:30N 39°55' W 075°08'0 0.0
2017-Sep-14 12:00N 39°55' W 075°08'0 0.0
2017-Sep-14 11:30N 39°55' W 075°08'0 0.0
2017-Sep-14 11:00N 39°55' W 075°08'0 0.0
2017-Sep-14 10:30N 39°55' W 075°08'0 0.0
2017-Sep-14 10:00N 39°55' W 075°08'0 0.0
2017-Sep-14 09:30N 39°55' W 075°08'0 0.0
2017-Sep-14 09:00N 39°55' W 075°08'0 0.2
2017-Sep-14 08:30N 39°55' W 075°08'0 0.2
2017-Sep-14 08:00N 39°55' W 075°08'0 0.0
2017-Sep-14 07:30N 39°55' W 075°08'0 0.0
2017-Sep-14 07:00N 39°55' W 075°08'0 0.0
2017-Sep-14 06:30N 39°55' W 075°08'0 0.0
2017-Sep-14 06:00N 39°55' W 075°08'0 0.0
2017-Sep-14 05:30N 39°55' W 075°08'0 0.0
2017-Sep-14 05:00N 39°55' W 075°08'0 0.0
2017-Sep-14 04:30N 39°55' W 075°08'0 0.0
2017-Sep-14 04:00N 39°55' W 075°08'0 0.0
2017-Sep-14 03:30N 39°55' W 075°08'0 0.0
2017-Sep-14 03:00N 39°55' W 075°08'0 0.0
2017-Sep-14 02:30N 39°55' W 075°08'0 0.1
2017-Sep-14 02:00N 39°55' W 075°08'0 0.3
2017-Sep-14 01:30N 39°55' W 075°08'0 0.0
2017-Sep-14 01:00N 39°55' W 075°08'0 0.0
2017-Sep-14 00:30N 39°55' W 075°08'0 0.0
2017-Sep-14 00:00N 39°55' W 075°08'0 0.0
2017-Sep-13 23:30N 39°55' W 075°08'0 0.0
2017-Sep-13 23:00N 39°55' W 075°08'0 0.0
2017-Sep-13 22:30N 39°55' W 075°08'0 0.0
2017-Sep-13 22:00N 39°55' W 075°08'0 0.0
2017-Sep-13 21:30N 39°55' W 075°08'0 0.0
2017-Sep-13 21:00N 39°55' W 075°08'0 0.0
2017-Sep-13 20:30N 39°55' W 075°08'0 0.2
2017-Sep-13 20:00N 39°55' W 075°08'2 3.3
2017-Sep-13 19:30N 39°53' W 075°08'3 6.6
2017-Sep-13 19:00N 39°52' W 075°12'2 4.5
2017-Sep-13 18:30N 39°51' W 075°15'1 2.2
2017-Sep-13 17:59N 39°51' W 075°16'0 0.0
2017-Sep-13 17:29N 39°51' W 075°16'0 0.0
2017-Sep-13 16:59N 39°51' W 075°16'0 0.0
2017-Sep-13 16:28N 39°51' W 075°16'0 0.0
2017-Sep-13 15:59N 39°51' W 075°16'0 0.0
2017-Sep-13 15:29N 39°51' W 075°16'0 0.0
2017-Sep-13 14:59N 39°51' W 075°16'0 0.0
2017-Sep-13 14:29N 39°51' W 075°16'0 0.0
2017-Sep-13 13:59N 39°51' W 075°16'0 0.0
2017-Sep-13 13:28N 39°51' W 075°16'0 0.0
2017-Sep-13 12:58N 39°51' W 075°16'0 0.0
2017-Sep-13 12:28N 39°51' W 075°16'0 0.0
2017-Sep-13 11:59N 39°51' W 075°16'0 0.0
2017-Sep-13 11:29N 39°51' W 075°16'0 0.0
2017-Sep-13 10:58N 39°51' W 075°16'0 0.0
2017-Sep-13 10:28N 39°51' W 075°16'0 0.0
2017-Sep-13 09:58N 39°51' W 075°16'0 0.0
2017-Sep-13 09:28N 39°51' W 075°16'0 0.0
2017-Sep-13 08:58N 39°51' W 075°16'0 0.0
2017-Sep-13 08:28N 39°51' W 075°16'0 0.0
2017-Sep-13 07:58N 39°51' W 075°16'0 0.0
2017-Sep-13 07:28N 39°51' W 075°16'0 0.0
2017-Sep-13 06:58N 39°51' W 075°16'0 0.0
2017-Sep-13 06:28N 39°51' W 075°16'0 0.0
2017-Sep-13 05:58N 39°51' W 075°16'0 0.0
2017-Sep-13 05:28N 39°51' W 075°16'0 0.0
2017-Sep-13 04:58N 39°51' W 075°16'0 0.0
2017-Sep-13 04:28N 39°51' W 075°16'0 0.0
2017-Sep-13 03:58N 39°51' W 075°16'0 0.0
2017-Sep-13 03:28N 39°51' W 075°16'0 0.0
2017-Sep-13 02:58N 39°51' W 075°16'0 0.0
2017-Sep-13 02:22N 39°51' W 075°16'0 0.0
2017-Sep-13 01:58N 39°51' W 075°16'0 0.0
2017-Sep-13 01:28N 39°51' W 075°16'0 0.0
2017-Sep-13 00:58N 39°51' W 075°16'0 0.0
2017-Sep-13 00:28N 39°51' W 075°16'0 0.0
2017-Sep-12 23:58N 39°51' W 075°16'0 0.0
2017-Sep-12 23:29N 39°51' W 075°16'0 0.0
2017-Sep-12 22:59N 39°51' W 075°16'0 0.0
2017-Sep-12 22:25N 39°51' W 075°16'0 0.0
2017-Sep-12 21:58N 39°51' W 075°16'0 0.0
2017-Sep-12 21:29N 39°51' W 075°16'0 0.0
2017-Sep-12 20:59N 39°51' W 075°16'0 0.0
2017-Sep-12 20:29N 39°51' W 075°16'0 0.0
2017-Sep-12 19:58N 39°51' W 075°16'0 0.0
2017-Sep-12 19:25N 39°51' W 075°16'0 0.0
2017-Sep-12 18:59N 39°51' W 075°16'0 0.0
2017-Sep-12 18:28N 39°51' W 075°16'0 0.0
2017-Sep-12 17:58N 39°51' W 075°16'0 0.0
2017-Sep-12 17:30N 39°51' W 075°16'1 1.3
2017-Sep-12 17:00N 39°51' W 075°15'2 3.6
2017-Sep-12 16:30N 39°52' W 075°13'0 0.0
2017-Sep-12 16:00N 39°52' W 075°13'0 0.0
2017-Sep-12 15:30N 39°52' W 075°13'0 0.0
2017-Sep-12 15:00N 39°52' W 075°13'0 0.0
2017-Sep-12 14:30N 39°52' W 075°13'0 0.1
2017-Sep-12 14:00N 39°52' W 075°13'0 0.0
2017-Sep-12 13:30N 39°52' W 075°13'0 0.0
2017-Sep-12 13:00N 39°52' W 075°13'0 0.0
2017-Sep-12 12:30N 39°52' W 075°13'0 0.1
2017-Sep-12 09:15N 39°52' W 075°13'0 0.0
2017-Sep-12 09:00N 39°52' W 075°13'0 0.0
2017-Sep-12 08:30N 39°52' W 075°13'0 0.0
2017-Sep-12 08:00N 39°52' W 075°13'0 0.0
2017-Sep-12 07:30N 39°52' W 075°13'0 0.0
2017-Sep-12 07:00N 39°52' W 075°13'0 0.1
2017-Sep-12 06:30N 39°52' W 075°13'0 0.3
2017-Sep-12 06:00N 39°52' W 075°13'0 0.0
2017-Sep-12 05:27N 39°52' W 075°13'0 0.1
2017-Sep-12 05:00N 39°52' W 075°13'0 0.0
2017-Sep-12 04:30N 39°52' W 075°13'0 0.0
2017-Sep-12 04:00N 39°52' W 075°13'0 0.0
2017-Sep-12 03:30N 39°52' W 075°13'0 0.0
2017-Sep-12 03:00N 39°52' W 075°13'0 0.0
2017-Sep-12 02:30N 39°52' W 075°13'0 0.0
2017-Sep-12 02:00N 39°52' W 075°13'0 0.0
2017-Sep-12 01:30N 39°52' W 075°13'0 0.0
2017-Sep-12 01:00N 39°52' W 075°13'0 0.0
2017-Sep-12 00:30N 39°52' W 075°13'0 0.1
2017-Sep-12 00:00N 39°52' W 075°13'0 0.1
2017-Sep-11 23:30N 39°52' W 075°13'0 0.3
2017-Sep-11 23:00N 39°52' W 075°13'0 0.0
2017-Sep-11 22:30N 39°52' W 075°13'0 0.0
2017-Sep-11 22:00N 39°52' W 075°13'0 0.0
2017-Sep-11 21:30N 39°52' W 075°13'0 0.0
2017-Sep-11 20:57N 39°52' W 075°13'0 0.0
2017-Sep-11 20:30N 39°52' W 075°13'0 0.0
2017-Sep-11 20:00N 39°52' W 075°13'0 0.0
2017-Sep-11 19:30N 39°52' W 075°13'0 0.0
2017-Sep-11 19:00N 39°52' W 075°13'0 0.0
2017-Sep-11 18:30N 39°52' W 075°13'0 0.0
2017-Sep-11 18:00N 39°52' W 075°13'0 0.2
2017-Sep-11 17:30N 39°52' W 075°13'0 0.3
2017-Sep-11 17:00N 39°52' W 075°13'0 0.1
2017-Sep-11 16:30N 39°52' W 075°13'0 0.0
2017-Sep-11 16:00N 39°52' W 075°13'0 0.0
2017-Sep-11 15:30N 39°52' W 075°13'0 0.1
2017-Sep-11 15:00N 39°52' W 075°13'0 0.0
2017-Sep-11 14:30N 39°52' W 075°13'0 0.0
2017-Sep-11 14:00N 39°52' W 075°13'0 0.0
2017-Sep-11 13:30N 39°52' W 075°13'0 0.0
2017-Sep-11 13:00N 39°52' W 075°13'0 0.0
2017-Sep-11 12:30N 39°52' W 075°13'0 0.0
2017-Sep-11 12:00N 39°52' W 075°13'0 0.0
2017-Sep-11 11:30N 39°52' W 075°13'0 0.2
2017-Sep-11 11:00N 39°52' W 075°13'0 0.3
2017-Sep-11 10:30N 39°52' W 075°13'0 0.1
2017-Sep-11 10:00N 39°52' W 075°13'0 0.0
2017-Sep-11 09:27N 39°52' W 075°13'0 0.0
2017-Sep-11 09:00N 39°52' W 075°13'0 0.0
2017-Sep-11 08:30N 39°52' W 075°13'0 0.0
2017-Sep-11 08:00N 39°52' W 075°13'0 0.0
2017-Sep-11 07:30N 39°52' W 075°13'0 0.0
2017-Sep-11 07:00N 39°52' W 075°13'0 0.0
2017-Sep-11 06:30N 39°52' W 075°13'0 0.0
2017-Sep-11 05:57N 39°52' W 075°13'0 0.0
2017-Sep-11 05:30N 39°52' W 075°13'0 0.1
2017-Sep-11 05:00N 39°52' W 075°13'0 0.3
2017-Sep-11 04:30N 39°52' W 075°13'0 0.1
2017-Sep-11 04:00N 39°52' W 075°13'0 0.0
2017-Sep-11 03:30N 39°52' W 075°13'0 0.0
2017-Sep-11 03:00N 39°52' W 075°13'0 0.0
2017-Sep-11 02:30N 39°52' W 075°13'0 0.0
2017-Sep-11 02:00N 39°52' W 075°13'0 0.0
2017-Sep-11 01:30N 39°52' W 075°13'0 0.1
2017-Sep-11 01:00N 39°52' W 075°13'0 0.0
2017-Sep-11 00:30N 39°52' W 075°13'0 0.0
2017-Sep-11 00:00N 39°52' W 075°13'0 0.3
2017-Sep-10 23:30N 39°52' W 075°13'4 7.2
2017-Sep-10 23:01N 39°51' W 075°18'4 8.9
2017-Sep-10 22:30N 39°49' W 075°23'5 9.4
2017-Sep-10 22:01N 39°46' W 075°28'510.3
2017-Sep-10 21:30N 39°42' W 075°31'611.2
2017-Sep-10 21:00N 39°37' W 075°35'5 9.7
2017-Sep-10 20:31N 39°32' W 075°33'510.7
2017-Sep-10 20:00N 39°27' W 075°33'713.2
2017-Sep-10 19:30N 39°22' W 075°27'713.3
2017-Sep-10 19:00N 39°17' W 075°22'713.0
2017-Sep-10 18:30N 39°12' W 075°17'613.0
2017-Sep-10 18:00N 39°06' W 075°12'612.8
2017-Sep-10 17:30N 39°00' W 075°09'713.0
2017-Sep-10 17:00N 38°54' W 075°05'  
Track history (hours):
 
Tides and Currents Weather Stations Pressure Air Temp Water Temp Dewpoint Dewpoint Depression Visibility Wind Speed Wind Dir Waves Ship Positions

Sti Opera

Last reported at 2017-Sep-19 11:09 UTC. Time now 2017-Sep-22 18:53 UTC.
Position N 38°33' W 074°41'.

Length 183 m; draft 8 m.

Type: Tanker. MMSI: 538005269.

Date/timePositionNaut miles runAvg speedWind from/ knotsBaromVisibWave heightAir tempDewpointWater temp
2017-Sep-19 11:09N 38°33' W 074°41'1 3.6
2017-Sep-19 10:45N 38°32' W 074°40'1 3.5
2017-Sep-19 10:30N 38°32' W 074°39'1 1.7
2017-Sep-19 09:54N 38°32' W 074°37'1 2.0
2017-Sep-19 09:22N 38°33' W 074°37'1 2.1
2017-Sep-19 08:53N 38°34' W 074°37'1 2.1
2017-Sep-19 08:30N 38°35' W 074°37'1 2.2
2017-Sep-19 08:00N 38°36' W 074°37'1 2.3
2017-Sep-19 07:30N 38°37' W 074°38'1 2.4
2017-Sep-19 06:55N 38°38' W 074°39'1 2.3
2017-Sep-19 06:26N 38°39' W 074°39'1 2.1
2017-Sep-19 05:58N 38°40' W 074°40'1 1.5
2017-Sep-19 05:30N 38°39' W 074°40'1 1.6
2017-Sep-19 05:00N 38°38' W 074°40'1 1.7
2017-Sep-19 04:30N 38°38' W 074°40'1 1.1
2017-Sep-19 04:00N 38°37' W 074°39'1 1.2
2017-Sep-19 03:30N 38°37' W 074°39'1 1.2
2017-Sep-19 02:59N 38°36' W 074°38'0 1.0
2017-Sep-19 02:30N 38°36' W 074°39'3 1.8
2017-Sep-19 00:37N 38°39' W 074°41'1 2.0
2017-Sep-19 00:20N 38°38' W 074°41'1 2.0
2017-Sep-19 00:00N 38°38' W 074°40'1 2.2
2017-Sep-18 23:30N 38°38' W 074°39'1 2.3
2017-Sep-18 22:59N 38°37' W 074°37'1 2.5
2017-Sep-18 22:23N 38°36' W 074°36'1 2.8
2017-Sep-18 21:58N 38°36' W 074°35'2 3.2
2017-Sep-18 21:29N 38°35' W 074°33'1 1.2
2017-Sep-18 21:00N 38°35' W 074°34'0 0.3
2017-Sep-18 20:29N 38°35' W 074°34'0 0.9
2017-Sep-18 20:00N 38°35' W 074°34'1 1.2
2017-Sep-18 19:29N 38°36' W 074°35'1 1.0
2017-Sep-18 18:57N 38°36' W 074°35'2 1.5
2017-Sep-18 17:54N 38°38' W 074°36'0 0.6
2017-Sep-18 17:27N 38°37' W 074°36'0 0.0
2017-Sep-18 16:42N 38°37' W 074°36'0 0.0
2017-Sep-18 16:24N 38°37' W 074°36'0 0.0
2017-Sep-18 13:48N 38°37' W 074°36'0 0.0
2017-Sep-18 13:27N 38°37' W 074°36'8 1.2
2017-Sep-18 07:00N 38°37' W 074°47'611.9
2017-Sep-18 06:30N 38°38' W 074°54'713.7
2017-Sep-18 06:00N 38°44' W 074°59'612.7
2017-Sep-18 05:30N 38°49' W 075°04'610.9
2017-Sep-18 04:58N 38°54' W 075°06'715.4
2017-Sep-18 04:30N 39°01' W 075°09'815.4
2017-Sep-18 04:00N 39°08' W 075°14'714.9
2017-Sep-18 03:30N 39°14' W 075°18'714.3
2017-Sep-18 03:01N 39°19' W 075°25'713.4
2017-Sep-18 02:31N 39°24' W 075°30'611.6
2017-Sep-18 02:01N 39°30' W 075°34'5 9.1
2017-Sep-18 01:31N 39°34' W 075°34'2 3.1
2017-Sep-18 01:01N 39°35' W 075°35'0 0.4
2017-Sep-18 00:30N 39°35' W 075°36'0 0.0
2017-Sep-18 00:00N 39°35' W 075°36'0 0.0
2017-Sep-17 23:30N 39°35' W 075°36'0 0.0
2017-Sep-17 23:00N 39°35' W 075°36'0 0.0
2017-Sep-17 22:30N 39°35' W 075°36'0 0.0
2017-Sep-17 22:00N 39°35' W 075°36'0 0.0
2017-Sep-17 21:30N 39°35' W 075°36'0 0.0
2017-Sep-17 21:00N 39°35' W 075°36'0 0.0
2017-Sep-17 20:30N 39°35' W 075°36'0 0.0
2017-Sep-17 19:59N 39°35' W 075°36'0 0.0
2017-Sep-17 19:26N 39°35' W 075°36'0 0.0
2017-Sep-17 19:00N 39°35' W 075°36'0 0.0
2017-Sep-17 18:29N 39°35' W 075°36'0 0.0
2017-Sep-17 18:00N 39°35' W 075°36'0 0.0
2017-Sep-17 17:29N 39°35' W 075°36'0 0.0
2017-Sep-17 17:00N 39°35' W 075°36'0 0.0
2017-Sep-17 16:30N 39°35' W 075°36'0 0.0
2017-Sep-17 16:00N 39°35' W 075°36'0 0.0
2017-Sep-17 15:30N 39°35' W 075°36'0 0.0
2017-Sep-17 15:00N 39°35' W 075°36'0 0.0
2017-Sep-17 14:29N 39°35' W 075°36'0 0.0
2017-Sep-17 13:59N 39°35' W 075°36'0 0.0
2017-Sep-17 13:29N 39°35' W 075°36'0 0.0
2017-Sep-17 13:00N 39°35' W 075°36'0 0.0
2017-Sep-17 12:30N 39°35' W 075°36'0 0.0
2017-Sep-17 12:00N 39°35' W 075°36'0 0.0
2017-Sep-17 11:29N 39°35' W 075°36'0 0.0
2017-Sep-17 10:59N 39°35' W 075°36'0 0.0
2017-Sep-17 10:29N 39°35' W 075°36'0 0.0
2017-Sep-17 09:59N 39°35' W 075°36'0 0.0
2017-Sep-17 09:30N 39°35' W 075°36'0 0.0
2017-Sep-17 08:59N 39°35' W 075°36'0 0.0
2017-Sep-17 08:29N 39°35' W 075°36'0 0.0
2017-Sep-17 07:59N 39°35' W 075°36'0 0.0
2017-Sep-17 07:29N 39°35' W 075°36'0 0.0
2017-Sep-17 06:56N 39°35' W 075°36'0 0.0
2017-Sep-17 06:29N 39°35' W 075°36'0 0.0
2017-Sep-17 05:59N 39°35' W 075°36'0 0.0
2017-Sep-17 05:29N 39°35' W 075°36'0 0.0
2017-Sep-17 04:59N 39°35' W 075°36'0 0.0
2017-Sep-17 04:29N 39°35' W 075°36'0 0.0
2017-Sep-17 03:59N 39°35' W 075°36'0 0.0
2017-Sep-17 03:29N 39°35' W 075°36'0 0.0
2017-Sep-17 02:59N 39°35' W 075°36'0 0.0
2017-Sep-17 02:29N 39°35' W 075°36'0 0.0
2017-Sep-17 01:59N 39°35' W 075°36'0 0.0
2017-Sep-17 01:29N 39°35' W 075°36'0 0.0
2017-Sep-17 00:59N 39°35' W 075°36'0 0.0
2017-Sep-17 00:29N 39°35' W 075°36'0 0.0
2017-Sep-16 23:59N 39°35' W 075°36'0 0.0
2017-Sep-16 23:29N 39°35' W 075°36'0 0.0
2017-Sep-16 22:59N 39°35' W 075°36'0 0.0
2017-Sep-16 22:29N 39°35' W 075°36'0 0.0
2017-Sep-16 21:59N 39°35' W 075°36'0 0.0
2017-Sep-16 21:29N 39°35' W 075°36'0 0.0
2017-Sep-16 20:59N 39°35' W 075°36'0 0.0
2017-Sep-16 20:29N 39°35' W 075°36'0 0.0
2017-Sep-16 19:59N 39°35' W 075°36'0 0.0
2017-Sep-16 19:29N 39°35' W 075°36'0 0.0
2017-Sep-16 18:59N 39°35' W 075°36'0 0.0
2017-Sep-16 18:29N 39°35' W 075°36'0 0.0
2017-Sep-16 17:59N 39°35' W 075°36'0 0.0
2017-Sep-16 17:29N 39°35' W 075°36'0 0.0
2017-Sep-16 16:59N 39°35' W 075°36'0 0.0
2017-Sep-16 16:29N 39°35' W 075°36'0 0.0
2017-Sep-16 15:59N 39°35' W 075°36'0 0.0
2017-Sep-16 15:29N 39°35' W 075°36'0 0.0
2017-Sep-16 14:59N 39°35' W 075°36'0 0.0
2017-Sep-16 14:29N 39°35' W 075°36'0 0.0
2017-Sep-16 13:59N 39°35' W 075°36'0 0.0
2017-Sep-16 13:29N 39°35' W 075°36'0 0.0
2017-Sep-16 12:59N 39°35' W 075°36'0 0.0
2017-Sep-16 12:29N 39°35' W 075°36'0 0.0
2017-Sep-16 11:59N 39°35' W 075°36'0 0.0
2017-Sep-16 11:29N 39°35' W 075°36'0 0.0
2017-Sep-16 10:59N 39°35' W 075°36'0 0.0
2017-Sep-16 10:29N 39°35' W 075°36'0 0.0
2017-Sep-16 09:59N 39°35' W 075°36'0 0.0
2017-Sep-16 09:29N 39°35' W 075°36'0 0.0
2017-Sep-16 08:56N 39°35' W 075°36'0 0.0
2017-Sep-16 08:29N 39°35' W 075°36'0 0.0
2017-Sep-16 07:59N 39°35' W 075°36'0 0.0
2017-Sep-16 07:29N 39°35' W 075°36'0 0.0
2017-Sep-16 06:59N 39°35' W 075°36'0 0.0
2017-Sep-16 06:29N 39°35' W 075°36'0 0.0
2017-Sep-16 05:59N 39°35' W 075°36'0 0.0
2017-Sep-16 05:29N 39°35' W 075°36'0 0.0
2017-Sep-16 04:59N 39°35' W 075°36'0 0.0
2017-Sep-16 04:29N 39°35' W 075°36'0 0.0
2017-Sep-16 03:59N 39°35' W 075°36'0 0.0
2017-Sep-16 03:29N 39°35' W 075°36'0 0.0
2017-Sep-16 02:59N 39°35' W 075°36'0 0.0
2017-Sep-16 02:29N 39°35' W 075°36'0 0.4
2017-Sep-16 02:01N 39°35' W 075°35'2 3.7
2017-Sep-16 01:31N 39°34' W 075°33'1 2.1
2017-Sep-16 01:01N 39°35' W 075°34'3 6.1
2017-Sep-16 00:30N 39°38' W 075°34'3 6.8
2017-Sep-16 00:00N 39°41' W 075°31'3 5.8
2017-Sep-15 23:31N 39°43' W 075°30'3 6.1
2017-Sep-15 23:00N 39°46' W 075°28'4 7.1
2017-Sep-15 22:31N 39°48' W 075°25'4 8.5
2017-Sep-15 22:00N 39°51' W 075°20'4 8.1
2017-Sep-15 21:30N 39°51' W 075°15'1 2.0
2017-Sep-15 20:58N 39°51' W 075°14'0 0.2
2017-Sep-15 20:28N 39°51' W 075°14'0 0.1
2017-Sep-15 19:58N 39°52' W 075°14'0 0.0
2017-Sep-15 19:28N 39°52' W 075°14'0 0.1
2017-Sep-15 18:58N 39°52' W 075°14'0 0.0
2017-Sep-15 18:28N 39°52' W 075°14'0 0.0
2017-Sep-15 17:58N 39°51' W 075°14'0 0.0
2017-Sep-15 17:28N 39°51' W 075°14'0 0.0
2017-Sep-15 16:58N 39°52' W 075°14'0 0.0
2017-Sep-15 16:28N 39°52' W 075°14'0 0.0
2017-Sep-15 15:58N 39°52' W 075°14'0 0.1
2017-Sep-15 15:28N 39°52' W 075°14'0 0.3
2017-Sep-15 14:58N 39°52' W 075°14'0 0.1
2017-Sep-15 14:28N 39°52' W 075°13'0 0.0
2017-Sep-15 13:58N 39°52' W 075°13'0 0.0
2017-Sep-15 13:28N 39°52' W 075°13'0 0.0
2017-Sep-15 12:58N 39°52' W 075°13'0 0.0
2017-Sep-15 12:28N 39°52' W 075°13'0 0.0
2017-Sep-15 11:58N 39°52' W 075°13'0 0.0
2017-Sep-15 11:28N 39°52' W 075°13'0 0.0
2017-Sep-15 10:58N 39°52' W 075°13'0 0.0
2017-Sep-15 10:28N 39°52' W 075°13'0 0.0
2017-Sep-15 09:58N 39°52' W 075°13'0 0.3
2017-Sep-15 09:25N 39°51' W 075°14'0 0.1
2017-Sep-15 08:58N 39°52' W 075°14'0 0.1
2017-Sep-15 08:28N 39°51' W 075°14'0 0.0
2017-Sep-15 07:55N 39°52' W 075°14'0 0.0
2017-Sep-15 07:28N 39°52' W 075°14'0 0.0
2017-Sep-15 06:58N 39°52' W 075°14'0 0.0
2017-Sep-15 06:28N 39°52' W 075°14'0 0.0
2017-Sep-15 05:58N 39°52' W 075°14'0 0.0
2017-Sep-15 05:28N 39°52' W 075°14'0 0.0
2017-Sep-15 04:58N 39°52' W 075°14'0 0.0
2017-Sep-15 04:25N 39°52' W 075°14'0 0.0
2017-Sep-15 03:58N 39°52' W 075°14'0 0.0
2017-Sep-15 03:28N 39°52' W 075°14'0 0.0
2017-Sep-15 02:55N 39°52' W 075°14'0 0.3
2017-Sep-15 02:28N 39°52' W 075°14'0 0.1
2017-Sep-15 01:58N 39°52' W 075°13'0 0.0
2017-Sep-15 01:28N 39°52' W 075°13'0 0.0
2017-Sep-15 00:58N 39°52' W 075°13'0 0.0
2017-Sep-15 00:28N 39°52' W 075°13'0 0.0
2017-Sep-14 23:58N 39°52' W 075°13'0 0.0
2017-Sep-14 23:28N 39°52' W 075°13'0 0.0
2017-Sep-14 22:58N 39°52' W 075°13'0 0.0
2017-Sep-14 22:28N 39°52' W 075°13'1 2.2
2017-Sep-14 22:00N 39°52' W 075°13'3 6.3
2017-Sep-14 21:30N 39°53' W 075°09'2 4.2
2017-Sep-14 21:00N 39°55' W 075°08'0 0.1
2017-Sep-14 20:30N 39°55' W 075°08'0 0.3
2017-Sep-14 20:00N 39°55' W 075°08'0 0.0
2017-Sep-14 19:30N 39°55' W 075°08'0 0.0
2017-Sep-14 19:00N 39°55' W 075°08'0 0.0
2017-Sep-14 18:30N 39°55' W 075°08'0 0.0
2017-Sep-14 18:00N 39°55' W 075°08'0 0.0
2017-Sep-14 17:30N 39°55' W 075°08'0 0.0
2017-Sep-14 17:00N 39°55' W 075°08'0 0.0
2017-Sep-14 16:30N 39°55' W 075°08'0 0.0
2017-Sep-14 16:00N 39°55' W 075°08'0 0.0
2017-Sep-14 15:30N 39°55' W 075°08'0 0.0
2017-Sep-14 15:00N 39°55' W 075°08'0 0.2
2017-Sep-14 14:30N 39°55' W 075°08'0 0.2
2017-Sep-14 14:00N 39°55' W 075°08'0 0.1
2017-Sep-14 13:30N 39°55' W 075°08'0 0.0
2017-Sep-14 13:00N 39°55' W 075°08'0 0.0
2017-Sep-14 12:30N 39°55' W 075°08'0 0.0
2017-Sep-14 12:00N 39°55' W 075°08'0 0.0
2017-Sep-14 11:30N 39°55' W 075°08'0 0.0
2017-Sep-14 11:00N 39°55' W 075°08'0 0.0
2017-Sep-14 10:30N 39°55' W 075°08'0 0.0
2017-Sep-14 10:00N 39°55' W 075°08'0 0.0
2017-Sep-14 09:30N 39°55' W 075°08'0 0.0
2017-Sep-14 09:00N 39°55' W 075°08'0 0.2
2017-Sep-14 08:30N 39°55' W 075°08'0 0.2
2017-Sep-14 08:00N 39°55' W 075°08'0 0.0
2017-Sep-14 07:30N 39°55' W 075°08'0 0.0
2017-Sep-14 07:00N 39°55' W 075°08'0 0.0
2017-Sep-14 06:30N 39°55' W 075°08'0 0.0
2017-Sep-14 06:00N 39°55' W 075°08'0 0.0
2017-Sep-14 05:30N 39°55' W 075°08'0 0.0
2017-Sep-14 05:00N 39°55' W 075°08'0 0.0
2017-Sep-14 04:30N 39°55' W 075°08'0 0.0
2017-Sep-14 04:00N 39°55' W 075°08'0 0.0
2017-Sep-14 03:30N 39°55' W 075°08'0 0.0
2017-Sep-14 03:00N 39°55' W 075°08'0 0.0
2017-Sep-14 02:30N 39°55' W 075°08'0 0.1
2017-Sep-14 02:00N 39°55' W 075°08'0 0.3
2017-Sep-14 01:30N 39°55' W 075°08'0 0.0
2017-Sep-14 01:00N 39°55' W 075°08'0 0.0
2017-Sep-14 00:30N 39°55' W 075°08'0 0.0
2017-Sep-14 00:00N 39°55' W 075°08'0 0.0
2017-Sep-13 23:30N 39°55' W 075°08'0 0.0
2017-Sep-13 23:00N 39°55' W 075°08'0 0.0
2017-Sep-13 22:30N 39°55' W 075°08'0 0.0
2017-Sep-13 22:00N 39°55' W 075°08'0 0.0
2017-Sep-13 21:30N 39°55' W 075°08'0 0.0
2017-Sep-13 21:00N 39°55' W 075°08'0 0.0
2017-Sep-13 20:30N 39°55' W 075°08'0 0.2
2017-Sep-13 20:00N 39°55' W 075°08'2 3.3
2017-Sep-13 19:30N 39°53' W 075°08'3 6.6
2017-Sep-13 19:00N 39°52' W 075°12'2 4.5
2017-Sep-13 18:30N 39°51' W 075°15'1 2.2
2017-Sep-13 17:59N 39°51' W 075°16'0 0.0
2017-Sep-13 17:29N 39°51' W 075°16'0 0.0
2017-Sep-13 16:59N 39°51' W 075°16'0 0.0
2017-Sep-13 16:28N 39°51' W 075°16'0 0.0
2017-Sep-13 15:59N 39°51' W 075°16'0 0.0
2017-Sep-13 15:29N 39°51' W 075°16'0 0.0
2017-Sep-13 14:59N 39°51' W 075°16'0 0.0
2017-Sep-13 14:29N 39°51' W 075°16'0 0.0
2017-Sep-13 13:59N 39°51' W 075°16'0 0.0
2017-Sep-13 13:28N 39°51' W 075°16'0 0.0
2017-Sep-13 12:58N 39°51' W 075°16'0 0.0
2017-Sep-13 12:28N 39°51' W 075°16'0 0.0
2017-Sep-13 11:59N 39°51' W 075°16'0 0.0
2017-Sep-13 11:29N 39°51' W 075°16'0 0.0
2017-Sep-13 10:58N 39°51' W 075°16'0 0.0
2017-Sep-13 10:28N 39°51' W 075°16'0 0.0
2017-Sep-13 09:58N 39°51' W 075°16'0 0.0
2017-Sep-13 09:28N 39°51' W 075°16'0 0.0
2017-Sep-13 08:58N 39°51' W 075°16'0 0.0
2017-Sep-13 08:28N 39°51' W 075°16'0 0.0
2017-Sep-13 07:58N 39°51' W 075°16'0 0.0
2017-Sep-13 07:28N 39°51' W 075°16'0 0.0
2017-Sep-13 06:58N 39°51' W 075°16'0 0.0
2017-Sep-13 06:28N 39°51' W 075°16'0 0.0
2017-Sep-13 05:58N 39°51' W 075°16'0 0.0
2017-Sep-13 05:28N 39°51' W 075°16'0 0.0
2017-Sep-13 04:58N 39°51' W 075°16'0 0.0
2017-Sep-13 04:28N 39°51' W 075°16'0 0.0
2017-Sep-13 03:58N 39°51' W 075°16'0 0.0
2017-Sep-13 03:28N 39°51' W 075°16'0 0.0
2017-Sep-13 02:58N 39°51' W 075°16'0 0.0
2017-Sep-13 02:22N 39°51' W 075°16'0 0.0
2017-Sep-13 01:58N 39°51' W 075°16'0 0.0
2017-Sep-13 01:28N 39°51' W 075°16'0 0.0
2017-Sep-13 00:58N 39°51' W 075°16'0 0.0
2017-Sep-13 00:28N 39°51' W 075°16'0 0.0
2017-Sep-12 23:58N 39°51' W 075°16'0 0.0
2017-Sep-12 23:29N 39°51' W 075°16'0 0.0
2017-Sep-12 22:59N 39°51' W 075°16'0 0.0
2017-Sep-12 22:25N 39°51' W 075°16'0 0.0
2017-Sep-12 21:58N 39°51' W 075°16'0 0.0
2017-Sep-12 21:29N 39°51' W 075°16'0 0.0
2017-Sep-12 20:59N 39°51' W 075°16'0 0.0
2017-Sep-12 20:29N 39°51' W 075°16'0 0.0
2017-Sep-12 19:58N 39°51' W 075°16'0 0.0
2017-Sep-12 19:25N 39°51' W 075°16'0 0.0
2017-Sep-12 18:59N 39°51' W 075°16'0 0.0
2017-Sep-12 18:28N 39°51' W 075°16'0 0.0
2017-Sep-12 17:58N 39°51' W 075°16'0 0.0
2017-Sep-12 17:30N 39°51' W 075°16'1 1.3
2017-Sep-12 17:00N 39°51' W 075°15'2 3.6
2017-Sep-12 16:30N 39°52' W 075°13'0 0.0
2017-Sep-12 16:00N 39°52' W 075°13'0 0.0
2017-Sep-12 15:30N 39°52' W 075°13'0 0.0
2017-Sep-12 15:00N 39°52' W 075°13'0 0.0
2017-Sep-12 14:30N 39°52' W 075°13'0 0.1
2017-Sep-12 14:00N 39°52' W 075°13'0 0.0
2017-Sep-12 13:30N 39°52' W 075°13'0 0.0
2017-Sep-12 13:00N 39°52' W 075°13'0 0.0
2017-Sep-12 12:30N 39°52' W 075°13'0 0.1
2017-Sep-12 09:15N 39°52' W 075°13'0 0.0
2017-Sep-12 09:00N 39°52' W 075°13'0 0.0
2017-Sep-12 08:30N 39°52' W 075°13'0 0.0
2017-Sep-12 08:00N 39°52' W 075°13'0 0.0
2017-Sep-12 07:30N 39°52' W 075°13'0 0.0
2017-Sep-12 07:00N 39°52' W 075°13'0 0.1
2017-Sep-12 06:30N 39°52' W 075°13'0 0.3
2017-Sep-12 06:00N 39°52' W 075°13'0 0.0
2017-Sep-12 05:27N 39°52' W 075°13'0 0.1
2017-Sep-12 05:00N 39°52' W 075°13'0 0.0
2017-Sep-12 04:30N 39°52' W 075°13'0 0.0
2017-Sep-12 04:00N 39°52' W 075°13'0 0.0
2017-Sep-12 03:30N 39°52' W 075°13'0 0.0
2017-Sep-12 03:00N 39°52' W 075°13'0 0.0
2017-Sep-12 02:30N 39°52' W 075°13'0 0.0
2017-Sep-12 02:00N 39°52' W 075°13'0 0.0
2017-Sep-12 01:30N 39°52' W 075°13'0 0.0
2017-Sep-12 01:00N 39°52' W 075°13'0 0.0
2017-Sep-12 00:30N 39°52' W 075°13'0 0.1
2017-Sep-12 00:00N 39°52' W 075°13'0 0.1
2017-Sep-11 23:30N 39°52' W 075°13'0 0.3
2017-Sep-11 23:00N 39°52' W 075°13'0 0.0
2017-Sep-11 22:30N 39°52' W 075°13'0 0.0
2017-Sep-11 22:00N 39°52' W 075°13'0 0.0
2017-Sep-11 21:30N 39°52' W 075°13'0 0.0
2017-Sep-11 20:57N 39°52' W 075°13'0 0.0
2017-Sep-11 20:30N 39°52' W 075°13'0 0.0
2017-Sep-11 20:00N 39°52' W 075°13'0 0.0
2017-Sep-11 19:30N 39°52' W 075°13'0 0.0
2017-Sep-11 19:00N 39°52' W 075°13'0 0.0
2017-Sep-11 18:30N 39°52' W 075°13'0 0.0
2017-Sep-11 18:00N 39°52' W 075°13'0 0.2
2017-Sep-11 17:30N 39°52' W 075°13'0 0.3
2017-Sep-11 17:00N 39°52' W 075°13'0 0.1
2017-Sep-11 16:30N 39°52' W 075°13'0 0.0
2017-Sep-11 16:00N 39°52' W 075°13'0 0.0
2017-Sep-11 15:30N 39°52' W 075°13'0 0.1
2017-Sep-11 15:00N 39°52' W 075°13'0 0.0
2017-Sep-11 14:30N 39°52' W 075°13'0 0.0
2017-Sep-11 14:00N 39°52' W 075°13'0 0.0
2017-Sep-11 13:30N 39°52' W 075°13'0 0.0
2017-Sep-11 13:00N 39°52' W 075°13'0 0.0
2017-Sep-11 12:30N 39°52' W 075°13'0 0.0
2017-Sep-11 12:00N 39°52' W 075°13'0 0.0
2017-Sep-11 11:30N 39°52' W 075°13'0 0.2
2017-Sep-11 11:00N 39°52' W 075°13'0 0.3
2017-Sep-11 10:30N 39°52' W 075°13'0 0.1
2017-Sep-11 10:00N 39°52' W 075°13'0 0.0
2017-Sep-11 09:27N 39°52' W 075°13'0 0.0
2017-Sep-11 09:00N 39°52' W 075°13'0 0.0
2017-Sep-11 08:30N 39°52' W 075°13'0 0.0
2017-Sep-11 08:00N 39°52' W 075°13'0 0.0
2017-Sep-11 07:30N 39°52' W 075°13'0 0.0
2017-Sep-11 07:00N 39°52' W 075°13'0 0.0
2017-Sep-11 06:30N 39°52' W 075°13'0 0.0
2017-Sep-11 05:57N 39°52' W 075°13'0 0.0
2017-Sep-11 05:30N 39°52' W 075°13'0 0.1
2017-Sep-11 05:00N 39°52' W 075°13'0 0.3
2017-Sep-11 04:30N 39°52' W 075°13'0 0.1
2017-Sep-11 04:00N 39°52' W 075°13'0 0.0
2017-Sep-11 03:30N 39°52' W 075°13'0 0.0
2017-Sep-11 03:00N 39°52' W 075°13'0 0.0
2017-Sep-11 02:30N 39°52' W 075°13'0 0.0
2017-Sep-11 02:00N 39°52' W 075°13'0 0.0
2017-Sep-11 01:30N 39°52' W 075°13'0 0.1
2017-Sep-11 01:00N 39°52' W 075°13'0 0.0
2017-Sep-11 00:30N 39°52' W 075°13'0 0.0
2017-Sep-11 00:00N 39°52' W 075°13'0 0.3
2017-Sep-10 23:30N 39°52' W 075°13'4 7.2
2017-Sep-10 23:01N 39°51' W 075°18'4 8.9
2017-Sep-10 22:30N 39°49' W 075°23'5 9.4
2017-Sep-10 22:01N 39°46' W 075°28'510.3
2017-Sep-10 21:30N 39°42' W 075°31'611.2
2017-Sep-10 21:00N 39°37' W 075°35'5 9.7
2017-Sep-10 20:31N 39°32' W 075°33'510.7
2017-Sep-10 20:00N 39°27' W 075°33'713.2
2017-Sep-10 19:30N 39°22' W 075°27'713.3
2017-Sep-10 19:00N 39°17' W 075°22'713.0
2017-Sep-10 18:30N 39°12' W 075°17'613.0
2017-Sep-10 18:00N 39°06' W 075°12'612.8
2017-Sep-10 17:30N 39°00' W 075°09'713.0
2017-Sep-10 17:00N 38°54' W 075°05'  

Dump ship's entire track history